sensor_id;sensor_type;location;lat;lon;timestamp;temperature;humidity
11491;DHT22;5802;52.832;4.758;2023-03-18T00:00:12;22.40;44.10
11491;DHT22;5802;52.832;4.758;2023-03-18T00:02:40;22.40;44.10
11491;DHT22;5802;52.832;4.758;2023-03-18T00:05:08;22.40;44.10
11491;DHT22;5802;52.832;4.758;2023-03-18T00:07:37;22.40;44.10
11491;DHT22;5802;52.832;4.758;2023-03-18T00:10:08;22.30;44.00
11491;DHT22;5802;52.832;4.758;2023-03-18T00:12:36;22.30;44.00
11491;DHT22;5802;52.832;4.758;2023-03-18T00:15:04;22.30;44.00
11491;DHT22;5802;52.832;4.758;2023-03-18T00:17:31;22.30;44.00
11491;DHT22;5802;52.832;4.758;2023-03-18T00:19:58;22.30;44.10
11491;DHT22;5802;52.832;4.758;2023-03-18T00:22:30;22.30;44.00
11491;DHT22;5802;52.832;4.758;2023-03-18T00:24:58;22.30;44.00
11491;DHT22;5802;52.832;4.758;2023-03-18T00:27:25;22.30;44.00
11491;DHT22;5802;52.832;4.758;2023-03-18T00:29:52;22.30;44.10
11491;DHT22;5802;52.832;4.758;2023-03-18T00:32:18;22.30;44.00
11491;DHT22;5802;52.832;4.758;2023-03-18T00:34:45;22.30;44.00
11491;DHT22;5802;52.832;4.758;2023-03-18T00:37:13;22.30;44.00
11491;DHT22;5802;52.832;4.758;2023-03-18T00:39:43;22.30;44.00
11491;DHT22;5802;52.832;4.758;2023-03-18T00:42:12;22.30;44.00
11491;DHT22;5802;52.832;4.758;2023-03-18T00:44:39;22.30;44.00
11491;DHT22;5802;52.832;4.758;2023-03-18T00:47:07;22.20;44.00
11491;DHT22;5802;52.832;4.758;2023-03-18T00:49:34;22.20;44.00
11491;DHT22;5802;52.832;4.758;2023-03-18T00:52:01;22.20;44.00
11491;DHT22;5802;52.832;4.758;2023-03-18T00:54:27;22.20;43.90
11491;DHT22;5802;52.832;4.758;2023-03-18T00:56:54;22.20;44.00
11491;DHT22;5802;52.832;4.758;2023-03-18T00:59:23;22.20;44.00
11491;DHT22;5802;52.832;4.758;2023-03-18T01:01:50;22.20;44.00
11491;DHT22;5802;52.832;4.758;2023-03-18T01:04:17;22.20;44.00
11491;DHT22;5802;52.832;4.758;2023-03-18T01:06:44;22.20;44.00
11491;DHT22;5802;52.832;4.758;2023-03-18T01:09:11;22.20;44.00
11491;DHT22;5802;52.832;4.758;2023-03-18T01:11:38;22.20;44.00
11491;DHT22;5802;52.832;4.758;2023-03-18T01:14:05;22.20;44.00
11491;DHT22;5802;52.832;4.758;2023-03-18T01:16:33;22.20;44.00
11491;DHT22;5802;52.832;4.758;2023-03-18T01:19:00;22.10;43.90
11491;DHT22;5802;52.832;4.758;2023-03-18T01:21:26;22.20;44.00
11491;DHT22;5802;52.832;4.758;2023-03-18T01:23:53;22.10;43.90
11491;DHT22;5802;52.832;4.758;2023-03-18T01:26:20;22.10;44.00
11491;DHT22;5802;52.832;4.758;2023-03-18T01:28:47;22.10;44.00
11491;DHT22;5802;52.832;4.758;2023-03-18T01:31:14;22.10;44.00
11491;DHT22;5802;52.832;4.758;2023-03-18T01:33:42;22.10;44.00
11491;DHT22;5802;52.832;4.758;2023-03-18T01:36:09;22.10;44.00
11491;DHT22;5802;52.832;4.758;2023-03-18T01:38:36;22.10;43.90
11491;DHT22;5802;52.832;4.758;2023-03-18T01:41:05;22.10;44.00
11491;DHT22;5802;52.832;4.758;2023-03-18T01:43:33;22.10;43.90
11491;DHT22;5802;52.832;4.758;2023-03-18T01:46:35;22.10;44.00
11491;DHT22;5802;52.832;4.758;2023-03-18T01:49:05;22.10;43.90
11491;DHT22;5802;52.832;4.758;2023-03-18T01:51:33;22.10;44.00
11491;DHT22;5802;52.832;4.758;2023-03-18T01:54:02;22.10;44.10
11491;DHT22;5802;52.832;4.758;2023-03-18T01:56:31;22.10;44.00
11491;DHT22;5802;52.832;4.758;2023-03-18T01:58:59;22.10;44.00
11491;DHT22;5802;52.832;4.758;2023-03-18T02:01:29;22.10;43.90
11491;DHT22;5802;52.832;4.758;2023-03-18T02:03:59;22.10;44.00
11491;DHT22;5802;52.832;4.758;2023-03-18T02:06:27;22.10;43.90
11491;DHT22;5802;52.832;4.758;2023-03-18T02:08:55;22.10;44.00
11491;DHT22;5802;52.832;4.758;2023-03-18T02:11:22;22.10;43.90
11491;DHT22;5802;52.832;4.758;2023-03-18T02:13:49;22.10;43.90
11491;DHT22;5802;52.832;4.758;2023-03-18T02:16:20;22.10;43.90
11491;DHT22;5802;52.832;4.758;2023-03-18T02:18:51;22.10;43.90
11491;DHT22;5802;52.832;4.758;2023-03-18T02:21:41;22.10;43.90
11491;DHT22;5802;52.832;4.758;2023-03-18T02:24:18;22.10;43.90
11491;DHT22;5802;52.832;4.758;2023-03-18T02:26:52;22.10;43.90
11491;DHT22;5802;52.832;4.758;2023-03-18T02:29:23;22.10;43.90
11491;DHT22;5802;52.832;4.758;2023-03-18T02:31:51;22.10;43.90
11491;DHT22;5802;52.832;4.758;2023-03-18T02:34:18;22.10;43.90
11491;DHT22;5802;52.832;4.758;2023-03-18T02:36:47;22.10;43.80
11491;DHT22;5802;52.832;4.758;2023-03-18T02:39:14;22.10;43.80
11491;DHT22;5802;52.832;4.758;2023-03-18T02:41:42;22.10;43.80
11491;DHT22;5802;52.832;4.758;2023-03-18T02:44:10;22.10;43.80
11491;DHT22;5802;52.832;4.758;2023-03-18T02:46:46;22.10;43.80
11491;DHT22;5802;52.832;4.758;2023-03-18T02:49:17;22.10;43.80
11491;DHT22;5802;52.832;4.758;2023-03-18T02:51:44;22.10;43.80
11491;DHT22;5802;52.832;4.758;2023-03-18T02:54:13;22.10;43.80
11491;DHT22;5802;52.832;4.758;2023-03-18T02:56:42;22.00;43.70
11491;DHT22;5802;52.832;4.758;2023-03-18T02:59:09;22.10;43.80
11491;DHT22;5802;52.832;4.758;2023-03-18T03:01:39;22.00;43.70
11491;DHT22;5802;52.832;4.758;2023-03-18T03:04:07;22.00;43.70
11491;DHT22;5802;52.832;4.758;2023-03-18T03:06:34;22.00;43.70
11491;DHT22;5802;52.832;4.758;2023-03-18T03:09:02;22.00;43.70
11491;DHT22;5802;52.832;4.758;2023-03-18T03:11:29;22.00;43.70
11491;DHT22;5802;52.832;4.758;2023-03-18T03:13:56;22.00;43.70
11491;DHT22;5802;52.832;4.758;2023-03-18T03:16:23;22.00;43.70
11491;DHT22;5802;52.832;4.758;2023-03-18T03:18:51;22.00;43.60
11491;DHT22;5802;52.832;4.758;2023-03-18T03:21:18;22.00;43.70
11491;DHT22;5802;52.832;4.758;2023-03-18T03:23:45;22.00;43.70
11491;DHT22;5802;52.832;4.758;2023-03-18T03:26:13;22.00;43.60
11491;DHT22;5802;52.832;4.758;2023-03-18T03:28:39;22.00;43.60
11491;DHT22;5802;52.832;4.758;2023-03-18T03:31:07;22.10;43.70
11491;DHT22;5802;52.832;4.758;2023-03-18T03:33:36;22.00;43.60
11491;DHT22;5802;52.832;4.758;2023-03-18T03:36:08;22.00;43.60
11491;DHT22;5802;52.832;4.758;2023-03-18T03:38:35;22.00;43.60
11491;DHT22;5802;52.832;4.758;2023-03-18T03:41:03;22.00;43.60
11491;DHT22;5802;52.832;4.758;2023-03-18T03:43:30;22.00;43.60
11491;DHT22;5802;52.832;4.758;2023-03-18T03:45:57;22.00;43.60
11491;DHT22;5802;52.832;4.758;2023-03-18T03:48:24;22.00;43.60
11491;DHT22;5802;52.832;4.758;2023-03-18T03:50:50;22.00;44.20
11491;DHT22;5802;52.832;4.758;2023-03-18T03:53:18;22.00;43.60
11491;DHT22;5802;52.832;4.758;2023-03-18T03:55:45;22.00;43.50
11491;DHT22;5802;52.832;4.758;2023-03-18T03:58:12;22.00;43.60
11491;DHT22;5802;52.832;4.758;2023-03-18T04:00:38;22.00;43.50
11491;DHT22;5802;52.832;4.758;2023-03-18T04:03:05;22.00;43.50
11491;DHT22;5802;52.832;4.758;2023-03-18T04:05:32;22.00;43.50
11491;DHT22;5802;52.832;4.758;2023-03-18T04:07:58;22.00;43.60
11491;DHT22;5802;52.832;4.758;2023-03-18T04:10:27;22.10;43.60
11491;DHT22;5802;52.832;4.758;2023-03-18T04:12:54;22.00;43.50
11491;DHT22;5802;52.832;4.758;2023-03-18T04:15:21;22.00;43.50
11491;DHT22;5802;52.832;4.758;2023-03-18T04:17:49;22.00;43.50
11491;DHT22;5802;52.832;4.758;2023-03-18T04:20:16;22.00;43.50
11491;DHT22;5802;52.832;4.758;2023-03-18T04:22:42;22.00;43.50
11491;DHT22;5802;52.832;4.758;2023-03-18T04:25:10;22.00;43.40
11491;DHT22;5802;52.832;4.758;2023-03-18T04:27:40;22.00;43.40
11491;DHT22;5802;52.832;4.758;2023-03-18T04:30:09;22.00;43.40
11491;DHT22;5802;52.832;4.758;2023-03-18T04:32:36;22.00;43.40
11491;DHT22;5802;52.832;4.758;2023-03-18T04:35:04;22.00;44.10
11491;DHT22;5802;52.832;4.758;2023-03-18T04:37:31;22.00;43.40
11491;DHT22;5802;52.832;4.758;2023-03-18T04:39:58;22.00;43.40
11491;DHT22;5802;52.832;4.758;2023-03-18T04:42:25;22.00;43.40
11491;DHT22;5802;52.832;4.758;2023-03-18T04:44:53;22.00;43.40
11491;DHT22;5802;52.832;4.758;2023-03-18T04:47:20;22.00;43.40
11491;DHT22;5802;52.832;4.758;2023-03-18T04:49:47;22.00;43.40
11491;DHT22;5802;52.832;4.758;2023-03-18T04:52:14;22.00;43.50
11491;DHT22;5802;52.832;4.758;2023-03-18T04:54:40;22.00;43.50
11491;DHT22;5802;52.832;4.758;2023-03-18T04:57:08;22.00;43.50
11491;DHT22;5802;52.832;4.758;2023-03-18T04:59:35;22.00;43.50
11491;DHT22;5802;52.832;4.758;2023-03-18T05:02:03;22.00;43.50
11491;DHT22;5802;52.832;4.758;2023-03-18T05:04:30;22.00;43.60
11491;DHT22;5802;52.832;4.758;2023-03-18T05:06:56;22.00;43.60
11491;DHT22;5802;52.832;4.758;2023-03-18T05:09:23;22.00;43.60
11491;DHT22;5802;52.832;4.758;2023-03-18T05:11:50;22.00;43.60
11491;DHT22;5802;52.832;4.758;2023-03-18T05:14:16;22.00;43.60
11491;DHT22;5802;52.832;4.758;2023-03-18T05:16:43;22.00;43.60
11491;DHT22;5802;52.832;4.758;2023-03-18T05:19:11;22.00;43.60
11491;DHT22;5802;52.832;4.758;2023-03-18T05:21:38;22.00;43.70
11491;DHT22;5802;52.832;4.758;2023-03-18T05:24:06;22.00;43.60
11491;DHT22;5802;52.832;4.758;2023-03-18T05:26:34;22.00;43.60
11491;DHT22;5802;52.832;4.758;2023-03-18T05:29:01;22.00;43.60
11491;DHT22;5802;52.832;4.758;2023-03-18T05:31:28;22.00;43.60
11491;DHT22;5802;52.832;4.758;2023-03-18T05:33:55;22.00;43.60
11491;DHT22;5802;52.832;4.758;2023-03-18T05:36:23;22.00;43.60
11491;DHT22;5802;52.832;4.758;2023-03-18T05:38:49;22.00;43.60
11491;DHT22;5802;52.832;4.758;2023-03-18T05:41:16;22.00;43.60
11491;DHT22;5802;52.832;4.758;2023-03-18T05:43:43;22.00;43.60
11491;DHT22;5802;52.832;4.758;2023-03-18T05:46:10;22.00;43.60
11491;DHT22;5802;52.832;4.758;2023-03-18T05:48:38;22.00;43.60
11491;DHT22;5802;52.832;4.758;2023-03-18T05:51:05;22.10;43.60
11491;DHT22;5802;52.832;4.758;2023-03-18T05:53:33;22.00;43.60
11491;DHT22;5802;52.832;4.758;2023-03-18T05:55:59;22.00;43.60
11491;DHT22;5802;52.832;4.758;2023-03-18T05:58:26;22.10;43.60
11491;DHT22;5802;52.832;4.758;2023-03-18T06:00:56;22.10;43.60
11491;DHT22;5802;52.832;4.758;2023-03-18T06:03:23;22.10;43.60
11491;DHT22;5802;52.832;4.758;2023-03-18T06:05:49;22.10;43.60
11491;DHT22;5802;52.832;4.758;2023-03-18T06:08:16;22.10;43.60
11491;DHT22;5802;52.832;4.758;2023-03-18T06:10:44;22.10;43.60
11491;DHT22;5802;52.832;4.758;2023-03-18T06:13:11;22.10;43.60
11491;DHT22;5802;52.832;4.758;2023-03-18T06:15:38;22.10;43.60
11491;DHT22;5802;52.832;4.758;2023-03-18T06:18:04;22.10;43.50
11491;DHT22;5802;52.832;4.758;2023-03-18T06:20:31;22.10;43.50
11491;DHT22;5802;52.832;4.758;2023-03-18T06:22:58;22.10;43.50
11491;DHT22;5802;52.832;4.758;2023-03-18T06:25:24;22.10;43.50
11491;DHT22;5802;52.832;4.758;2023-03-18T06:27:52;22.10;43.50
11491;DHT22;5802;52.832;4.758;2023-03-18T06:30:19;22.10;43.50
11491;DHT22;5802;52.832;4.758;2023-03-18T06:32:46;22.10;43.50
11491;DHT22;5802;52.832;4.758;2023-03-18T06:35:13;22.10;43.50
11491;DHT22;5802;52.832;4.758;2023-03-18T06:37:41;22.10;43.50
11491;DHT22;5802;52.832;4.758;2023-03-18T06:40:09;22.10;43.60
11491;DHT22;5802;52.832;4.758;2023-03-18T06:42:36;22.10;44.20
11491;DHT22;5802;52.832;4.758;2023-03-18T06:45:06;22.10;43.60
11491;DHT22;5802;52.832;4.758;2023-03-18T06:47:32;22.10;43.80
11491;DHT22;5802;52.832;4.758;2023-03-18T06:50:01;22.10;43.70
11491;DHT22;5802;52.832;4.758;2023-03-18T06:52:27;22.10;43.70
11491;DHT22;5802;52.832;4.758;2023-03-18T06:54:55;22.10;43.70
11491;DHT22;5802;52.832;4.758;2023-03-18T06:57:21;22.10;43.70
11491;DHT22;5802;52.832;4.758;2023-03-18T06:59:48;22.20;43.70
11491;DHT22;5802;52.832;4.758;2023-03-18T07:02:16;22.20;43.70
11491;DHT22;5802;52.832;4.758;2023-03-18T07:04:43;22.20;43.70
11491;DHT22;5802;52.832;4.758;2023-03-18T07:07:10;22.20;43.70
11491;DHT22;5802;52.832;4.758;2023-03-18T07:09:37;22.20;43.70
11491;DHT22;5802;52.832;4.758;2023-03-18T07:12:04;22.20;43.70
11491;DHT22;5802;52.832;4.758;2023-03-18T07:14:31;22.20;43.70
11491;DHT22;5802;52.832;4.758;2023-03-18T07:16:58;22.20;43.70
11491;DHT22;5802;52.832;4.758;2023-03-18T07:19:26;22.20;43.70
11491;DHT22;5802;52.832;4.758;2023-03-18T07:21:53;22.20;43.60
11491;DHT22;5802;52.832;4.758;2023-03-18T07:24:20;22.20;43.60
11491;DHT22;5802;52.832;4.758;2023-03-18T07:26:47;22.20;43.60
11491;DHT22;5802;52.832;4.758;2023-03-18T07:29:14;22.20;43.70
11491;DHT22;5802;52.832;4.758;2023-03-18T07:31:41;22.20;43.60
11491;DHT22;5802;52.832;4.758;2023-03-18T07:34:08;22.20;43.60
11491;DHT22;5802;52.832;4.758;2023-03-18T07:36:36;22.30;43.60
11491;DHT22;5802;52.832;4.758;2023-03-18T07:39:04;22.30;43.50
11491;DHT22;5802;52.832;4.758;2023-03-18T07:41:31;22.30;43.50
11491;DHT22;5802;52.832;4.758;2023-03-18T07:43:57;22.30;43.60
11491;DHT22;5802;52.832;4.758;2023-03-18T07:46:24;22.30;43.60
11491;DHT22;5802;52.832;4.758;2023-03-18T07:48:52;22.30;43.60
11491;DHT22;5802;52.832;4.758;2023-03-18T07:51:20;22.30;43.60
11491;DHT22;5802;52.832;4.758;2023-03-18T07:53:48;22.30;43.60
11491;DHT22;5802;52.832;4.758;2023-03-18T07:56:16;22.30;43.60
11491;DHT22;5802;52.832;4.758;2023-03-18T07:58:43;22.30;43.60
11491;DHT22;5802;52.832;4.758;2023-03-18T08:01:09;22.30;43.60
11491;DHT22;5802;52.832;4.758;2023-03-18T08:03:36;22.30;43.70
11491;DHT22;5802;52.832;4.758;2023-03-18T08:06:03;22.40;43.80
11491;DHT22;5802;52.832;4.758;2023-03-18T08:08:30;22.40;43.80
11491;DHT22;5802;52.832;4.758;2023-03-18T08:10:58;22.40;43.80
11491;DHT22;5802;52.832;4.758;2023-03-18T08:13:26;22.40;43.70
11491;DHT22;5802;52.832;4.758;2023-03-18T08:15:53;22.40;43.70
11491;DHT22;5802;52.832;4.758;2023-03-18T08:18:20;22.40;43.70
11491;DHT22;5802;52.832;4.758;2023-03-18T08:20:48;22.50;43.80
11491;DHT22;5802;52.832;4.758;2023-03-18T08:23:14;22.50;43.80
11491;DHT22;5802;52.832;4.758;2023-03-18T08:25:41;22.50;43.60
11491;DHT22;5802;52.832;4.758;2023-03-18T08:28:09;22.50;43.60
11491;DHT22;5802;52.832;4.758;2023-03-18T08:30:38;22.60;43.60
11491;DHT22;5802;52.832;4.758;2023-03-18T08:33:05;22.60;43.60
11491;DHT22;5802;52.832;4.758;2023-03-18T08:35:32;22.70;43.60
11491;DHT22;5802;52.832;4.758;2023-03-18T08:37:59;22.70;43.50
11491;DHT22;5802;52.832;4.758;2023-03-18T08:40:26;22.70;43.40
11491;DHT22;5802;52.832;4.758;2023-03-18T08:42:53;22.70;43.30
11491;DHT22;5802;52.832;4.758;2023-03-18T08:45:21;22.80;43.20
11491;DHT22;5802;52.832;4.758;2023-03-18T08:47:48;22.80;43.20
11491;DHT22;5802;52.832;4.758;2023-03-18T08:50:15;22.80;43.30
11491;DHT22;5802;52.832;4.758;2023-03-18T08:52:42;22.90;43.10
11491;DHT22;5802;52.832;4.758;2023-03-18T08:55:09;22.90;43.00
11491;DHT22;5802;52.832;4.758;2023-03-18T08:57:36;23.00;43.00
11491;DHT22;5802;52.832;4.758;2023-03-18T09:00:03;23.00;42.80
11491;DHT22;5802;52.832;4.758;2023-03-18T09:02:33;23.10;42.70
11491;DHT22;5802;52.832;4.758;2023-03-18T09:05:00;23.10;42.50
11491;DHT22;5802;52.832;4.758;2023-03-18T09:07:26;23.20;43.10
11491;DHT22;5802;52.832;4.758;2023-03-18T09:09:53;23.20;42.40
11491;DHT22;5802;52.832;4.758;2023-03-18T09:12:20;23.30;42.30
11491;DHT22;5802;52.832;4.758;2023-03-18T09:14:47;23.30;42.30
11491;DHT22;5802;52.832;4.758;2023-03-18T09:17:13;23.40;42.10
11491;DHT22;5802;52.832;4.758;2023-03-18T09:19:41;23.40;42.10
11491;DHT22;5802;52.832;4.758;2023-03-18T09:22:08;23.50;42.10
11491;DHT22;5802;52.832;4.758;2023-03-18T09:24:35;23.50;41.90
11491;DHT22;5802;52.832;4.758;2023-03-18T09:27:02;23.60;42.00
11491;DHT22;5802;52.832;4.758;2023-03-18T09:29:29;23.60;41.90
11491;DHT22;5802;52.832;4.758;2023-03-18T09:31:56;23.70;41.80
11491;DHT22;5802;52.832;4.758;2023-03-18T09:34:23;23.70;41.80
11491;DHT22;5802;52.832;4.758;2023-03-18T09:36:51;23.80;41.80
11491;DHT22;5802;52.832;4.758;2023-03-18T09:39:18;23.80;42.40
11491;DHT22;5802;52.832;4.758;2023-03-18T09:41:51;23.80;41.70
11491;DHT22;5802;52.832;4.758;2023-03-18T09:44:26;23.90;41.60
11491;DHT22;5802;52.832;4.758;2023-03-18T09:47:09;23.90;41.60
11491;DHT22;5802;52.832;4.758;2023-03-18T09:49:44;24.00;41.70
11491;DHT22;5802;52.832;4.758;2023-03-18T09:52:20;24.00;41.70
11491;DHT22;5802;52.832;4.758;2023-03-18T09:54:54;24.00;41.60
11491;DHT22;5802;52.832;4.758;2023-03-18T09:57:25;24.00;41.50
11491;DHT22;5802;52.832;4.758;2023-03-18T09:59:56;24.00;41.50
11491;DHT22;5802;52.832;4.758;2023-03-18T10:02:28;24.00;41.50
11491;DHT22;5802;52.832;4.758;2023-03-18T10:04:59;24.00;41.60
11491;DHT22;5802;52.832;4.758;2023-03-18T10:07:33;24.10;41.70
11491;DHT22;5802;52.832;4.758;2023-03-18T10:10:06;24.10;41.80
11491;DHT22;5802;52.832;4.758;2023-03-18T10:12:35;24.10;41.80
11491;DHT22;5802;52.832;4.758;2023-03-18T10:15:12;24.10;41.80
11491;DHT22;5802;52.832;4.758;2023-03-18T10:17:42;24.10;41.80
11491;DHT22;5802;52.832;4.758;2023-03-18T10:20:16;24.20;41.90
11491;DHT22;5802;52.832;4.758;2023-03-18T10:22:56;24.20;42.00
11491;DHT22;5802;52.832;4.758;2023-03-18T10:25:30;24.20;42.20
11491;DHT22;5802;52.832;4.758;2023-03-18T10:28:13;24.20;41.90
11491;DHT22;5802;52.832;4.758;2023-03-18T10:30:53;24.20;41.90
11491;DHT22;5802;52.832;4.758;2023-03-18T10:33:28;24.20;42.00
11491;DHT22;5802;52.832;4.758;2023-03-18T10:36:04;24.20;42.10
11491;DHT22;5802;52.832;4.758;2023-03-18T10:38:36;24.30;42.10
11491;DHT22;5802;52.832;4.758;2023-03-18T10:41:14;24.30;42.00
11491;DHT22;5802;52.832;4.758;2023-03-18T10:43:42;24.30;42.00
11491;DHT22;5802;52.832;4.758;2023-03-18T10:46:14;24.30;42.00
11491;DHT22;5802;52.832;4.758;2023-03-18T10:48:43;24.30;42.10
11491;DHT22;5802;52.832;4.758;2023-03-18T10:51:15;24.30;42.10
11491;DHT22;5802;52.832;4.758;2023-03-18T10:53:50;24.40;42.10
11491;DHT22;5802;52.832;4.758;2023-03-18T10:56:20;24.30;42.00
11491;DHT22;5802;52.832;4.758;2023-03-18T10:58:48;24.40;42.10
11491;DHT22;5802;52.832;4.758;2023-03-18T11:01:16;24.40;42.10
11491;DHT22;5802;52.832;4.758;2023-03-18T11:03:47;24.40;42.10
11491;DHT22;5802;52.832;4.758;2023-03-18T11:06:20;24.40;42.10
11491;DHT22;5802;52.832;4.758;2023-03-18T11:08:59;24.40;42.10
11491;DHT22;5802;52.832;4.758;2023-03-18T11:11:29;24.50;42.10
11491;DHT22;5802;52.832;4.758;2023-03-18T11:13:58;24.50;42.10
11491;DHT22;5802;52.832;4.758;2023-03-18T11:16:30;24.50;42.10
11491;DHT22;5802;52.832;4.758;2023-03-18T11:19:06;24.50;42.10
11491;DHT22;5802;52.832;4.758;2023-03-18T11:21:34;24.50;42.10
11491;DHT22;5802;52.832;4.758;2023-03-18T11:24:03;24.50;42.00
11491;DHT22;5802;52.832;4.758;2023-03-18T11:26:44;24.50;42.00
11491;DHT22;5802;52.832;4.758;2023-03-18T11:29:15;24.50;42.00
11491;DHT22;5802;52.832;4.758;2023-03-18T11:31:52;24.50;42.80
11491;DHT22;5802;52.832;4.758;2023-03-18T11:34:22;24.50;42.20
11491;DHT22;5802;52.832;4.758;2023-03-18T11:36:54;24.50;42.20
11491;DHT22;5802;52.832;4.758;2023-03-18T11:39:26;24.50;42.30
11491;DHT22;5802;52.832;4.758;2023-03-18T11:41:53;24.50;42.40
11491;DHT22;5802;52.832;4.758;2023-03-18T11:44:26;24.50;42.20
11491;DHT22;5802;52.832;4.758;2023-03-18T11:46:58;24.50;42.30
11491;DHT22;5802;52.832;4.758;2023-03-18T11:49:27;24.50;42.30
11491;DHT22;5802;52.832;4.758;2023-03-18T11:52:07;24.50;42.40
11491;DHT22;5802;52.832;4.758;2023-03-18T11:55:03;24.50;42.50
11491;DHT22;5802;52.832;4.758;2023-03-18T11:57:44;24.60;42.50
11491;DHT22;5802;52.832;4.758;2023-03-18T12:00:22;24.50;42.50
11491;DHT22;5802;52.832;4.758;2023-03-18T12:03:13;24.50;42.60
11491;DHT22;5802;52.832;4.758;2023-03-18T12:05:59;24.60;42.70
11491;DHT22;5802;52.832;4.758;2023-03-18T12:08:40;24.60;42.70
11491;DHT22;5802;52.832;4.758;2023-03-18T12:11:14;24.60;42.60
11491;DHT22;5802;52.832;4.758;2023-03-18T12:13:54;24.60;42.60
11491;DHT22;5802;52.832;4.758;2023-03-18T12:16:36;24.60;42.60
11491;DHT22;5802;52.832;4.758;2023-03-18T12:19:22;24.60;42.60
11491;DHT22;5802;52.832;4.758;2023-03-18T12:22:06;24.70;43.30
11491;DHT22;5802;52.832;4.758;2023-03-18T12:27:47;24.60;42.70
11491;DHT22;5802;52.832;4.758;2023-03-18T12:30:37;24.60;42.80
11491;DHT22;5802;52.832;4.758;2023-03-18T12:33:15;24.60;42.80
11491;DHT22;5802;52.832;4.758;2023-03-18T12:35:53;24.70;42.80
11491;DHT22;5802;52.832;4.758;2023-03-18T12:38:40;24.70;42.90
11491;DHT22;5802;52.832;4.758;2023-03-18T12:41:14;24.70;42.90
11491;DHT22;5802;52.832;4.758;2023-03-18T12:44:00;24.70;42.90
11491;DHT22;5802;52.832;4.758;2023-03-18T12:46:30;24.70;43.00
11491;DHT22;5802;52.832;4.758;2023-03-18T12:49:02;24.70;43.00
11491;DHT22;5802;52.832;4.758;2023-03-18T12:51:41;24.70;43.10
11491;DHT22;5802;52.832;4.758;2023-03-18T12:54:13;24.70;43.00
11491;DHT22;5802;52.832;4.758;2023-03-18T12:56:44;24.80;43.20
11491;DHT22;5802;52.832;4.758;2023-03-18T12:59:21;24.80;43.10
11491;DHT22;5802;52.832;4.758;2023-03-18T13:01:56;24.80;43.20
11491;DHT22;5802;52.832;4.758;2023-03-18T13:04:29;24.80;43.00
11491;DHT22;5802;52.832;4.758;2023-03-18T13:07:02;24.80;42.80
11491;DHT22;5802;52.832;4.758;2023-03-18T13:09:34;24.80;43.00
11491;DHT22;5802;52.832;4.758;2023-03-18T13:12:06;24.70;42.80
11491;DHT22;5802;52.832;4.758;2023-03-18T13:14:45;24.70;42.70
11491;DHT22;5802;52.832;4.758;2023-03-18T13:17:16;24.70;42.70
11491;DHT22;5802;52.832;4.758;2023-03-18T13:19:46;24.70;42.80
11491;DHT22;5802;52.832;4.758;2023-03-18T13:22:34;24.70;42.90
11491;DHT22;5802;52.832;4.758;2023-03-18T13:25:13;24.70;43.00
11491;DHT22;5802;52.832;4.758;2023-03-18T13:27:57;24.70;42.90
11491;DHT22;5802;52.832;4.758;2023-03-18T13:30:36;24.70;42.80
11491;DHT22;5802;52.832;4.758;2023-03-18T13:33:32;24.80;42.70
11491;DHT22;5802;52.832;4.758;2023-03-18T13:36:18;24.80;42.70
11491;DHT22;5802;52.832;4.758;2023-03-18T13:39:02;24.80;42.50
11491;DHT22;5802;52.832;4.758;2023-03-18T13:41:48;24.80;42.50
11491;DHT22;5802;52.832;4.758;2023-03-18T13:44:21;24.90;42.60
11491;DHT22;5802;52.832;4.758;2023-03-18T13:46:57;24.90;43.00
11491;DHT22;5802;52.832;4.758;2023-03-18T13:49:28;24.90;43.00
11491;DHT22;5802;52.832;4.758;2023-03-18T13:51:57;24.90;42.70
11491;DHT22;5802;52.832;4.758;2023-03-18T13:54:32;24.90;42.70
11491;DHT22;5802;52.832;4.758;2023-03-18T13:57:16;24.90;42.60
11491;DHT22;5802;52.832;4.758;2023-03-18T13:59:46;24.90;42.50
11491;DHT22;5802;52.832;4.758;2023-03-18T14:02:41;24.90;42.60
11491;DHT22;5802;52.832;4.758;2023-03-18T14:05:38;24.80;42.40
11491;DHT22;5802;52.832;4.758;2023-03-18T14:08:32;24.80;42.50
11491;DHT22;5802;52.832;4.758;2023-03-18T14:14:40;24.80;42.30
11491;DHT22;5802;52.832;4.758;2023-03-18T14:17:40;24.70;42.40
11491;DHT22;5802;52.832;4.758;2023-03-18T14:20:22;24.70;42.30
11491;DHT22;5802;52.832;4.758;2023-03-18T14:22:51;24.70;42.30
11491;DHT22;5802;52.832;4.758;2023-03-18T14:25:39;24.70;42.30
11491;DHT22;5802;52.832;4.758;2023-03-18T14:28:21;24.70;42.30
11491;DHT22;5802;52.832;4.758;2023-03-18T14:31:14;24.70;42.20
11491;DHT22;5802;52.832;4.758;2023-03-18T14:34:01;24.70;42.20
11491;DHT22;5802;52.832;4.758;2023-03-18T14:37:14;24.70;42.20
11491;DHT22;5802;52.832;4.758;2023-03-18T14:39:44;24.70;42.20
11491;DHT22;5802;52.832;4.758;2023-03-18T14:42:24;24.70;42.20
11491;DHT22;5802;52.832;4.758;2023-03-18T14:44:54;24.70;42.40
11491;DHT22;5802;52.832;4.758;2023-03-18T14:47:25;24.70;42.40
11491;DHT22;5802;52.832;4.758;2023-03-18T14:49:59;24.70;42.40
11491;DHT22;5802;52.832;4.758;2023-03-18T14:52:30;24.70;42.30
11491;DHT22;5802;52.832;4.758;2023-03-18T14:55:01;24.70;42.30
11491;DHT22;5802;52.832;4.758;2023-03-18T14:57:29;24.70;42.30
11491;DHT22;5802;52.832;4.758;2023-03-18T14:59:57;24.70;42.30
11491;DHT22;5802;52.832;4.758;2023-03-18T15:02:27;24.80;42.30
11491;DHT22;5802;52.832;4.758;2023-03-18T15:04:57;24.70;42.20
11491;DHT22;5802;52.832;4.758;2023-03-18T15:07:32;24.80;42.20
11491;DHT22;5802;52.832;4.758;2023-03-18T15:10:02;24.80;42.30
11491;DHT22;5802;52.832;4.758;2023-03-18T15:12:30;24.80;42.20
11491;DHT22;5802;52.832;4.758;2023-03-18T15:14:56;24.80;42.30
11491;DHT22;5802;52.832;4.758;2023-03-18T15:17:24;24.80;42.30
11491;DHT22;5802;52.832;4.758;2023-03-18T15:19:56;24.80;42.20
11491;DHT22;5802;52.832;4.758;2023-03-18T15:22:26;24.80;42.20
11491;DHT22;5802;52.832;4.758;2023-03-18T15:24:58;24.80;42.20
11491;DHT22;5802;52.832;4.758;2023-03-18T15:27:27;24.80;42.20
11491;DHT22;5802;52.832;4.758;2023-03-18T15:29:56;24.90;42.30
11491;DHT22;5802;52.832;4.758;2023-03-18T15:32:25;24.90;42.30
11491;DHT22;5802;52.832;4.758;2023-03-18T15:34:53;24.80;42.30
11491;DHT22;5802;52.832;4.758;2023-03-18T15:37:40;24.80;42.30
11491;DHT22;5802;52.832;4.758;2023-03-18T15:40:27;24.80;42.30
11491;DHT22;5802;52.832;4.758;2023-03-18T15:42:56;24.80;42.50
11491;DHT22;5802;52.832;4.758;2023-03-18T15:45:25;24.80;42.50
11491;DHT22;5802;52.832;4.758;2023-03-18T15:47:53;24.80;42.50
11491;DHT22;5802;52.832;4.758;2023-03-18T15:50:25;24.80;43.20
11491;DHT22;5802;52.832;4.758;2023-03-18T15:53:04;24.80;42.70
11491;DHT22;5802;52.832;4.758;2023-03-18T15:55:33;24.70;42.70
11491;DHT22;5802;52.832;4.758;2023-03-18T15:58:03;24.70;42.70
11491;DHT22;5802;52.832;4.758;2023-03-18T16:00:31;24.70;42.90
11491;DHT22;5802;52.832;4.758;2023-03-18T16:02:58;24.70;42.90
11491;DHT22;5802;52.832;4.758;2023-03-18T16:05:26;24.70;42.90
11491;DHT22;5802;52.832;4.758;2023-03-18T16:07:54;24.70;43.00
11491;DHT22;5802;52.832;4.758;2023-03-18T16:10:23;24.70;43.00
11491;DHT22;5802;52.832;4.758;2023-03-18T16:12:52;24.70;43.00